Time;durP1;ratioP1;P1;durP2;ratioP2;P2;SDS_P1;SDS_P2;PMS_P1;PMS_P2;Temp;Humidity;BMP_temperature;BMP_pressure;BME280_temperature;BME280_humidity;BME280_pressure;Samples;Min_cycle;Max_cycle;Signal;HPM_P1;HPM_P2
2021/04/17 00:08:03;;;;;;;0.40;0.40;;;10.00;59.80;;;;;;21058074;28;20036;-75
2021/04/17 00:18:06;;;;;;;0.30;0.30;;;10.00;59.70;;;;;;21076715;28;20363;-74
2021/04/17 00:28:07;;;;;;;0.95;0.28;;;10.00;59.70;;;;;;21073243;28;20067;-74
2021/04/17 00:38:08;;;;;;;0.30;0.20;;;9.90;59.50;;;;;;21023032;28;20028;-76
2021/04/17 00:48:13;;;;;;;0.65;0.40;;;9.90;59.50;;;;;;21037883;28;20334;-74
2021/04/17 00:58:13;;;;;;;0.20;0.10;;;9.90;59.40;;;;;;21054328;28;20060;-74
2021/04/17 01:08:22;;;;;;;0.57;0.38;;;9.90;59.40;;;;;;21070363;28;20078;-76
2021/04/17 01:18:22;;;;;;;0.25;0.25;;;9.90;59.40;;;;;;21053203;28;20039;-76
2021/04/17 01:28:23;;;;;;;0.22;0.22;;;9.90;59.40;;;;;;21052665;28;20047;-75
2021/04/17 01:38:32;;;;;;;0.85;0.30;;;9.90;59.30;;;;;;20955321;28;20126;-76
2021/04/17 01:48:34;;;;;;;0.32;0.30;;;9.90;59.30;;;;;;20701099;28;20126;-75
2021/04/17 01:58:38;;;;;;;0.28;0.20;;;9.90;59.20;;;;;;20740273;28;20068;-76
2021/04/17 02:08:40;;;;;;;0.10;0.10;;;9.90;59.10;;;;;;20723602;28;20069;-75
2021/04/17 02:19:01;;;;;;;0.43;0.40;;;9.90;59.00;;;;;;20722745;28;20164;-76
2021/04/17 02:29:01;;;;;;;0.20;0.20;;;9.90;58.90;;;;;;20707858;28;20087;-75
2021/04/17 02:39:03;;;;;;;3.10;0.52;;;9.90;58.90;;;;;;20705285;28;20064;-75
2021/04/17 02:49:04;;;;;;;0.22;0.22;;;9.90;58.90;;;;;;20704874;28;20128;-76
2021/04/17 02:59:05;;;;;;;0.57;0.47;;;9.90;58.90;;;;;;20735868;28;20554;-76
2021/04/17 03:09:07;;;;;;;0.40;0.30;;;9.90;58.90;;;;;;20768623;28;20034;-76
2021/04/17 03:19:07;;;;;;;0.35;0.20;;;9.90;58.90;;;;;;20686307;28;20037;-76
2021/04/17 03:29:08;;;;;;;0.20;0.20;;;9.90;58.90;;;;;;20718036;28;20053;-76
2021/04/17 03:39:09;;;;;;;0.50;0.40;;;9.90;58.90;;;;;;20700075;28;20350;-77
2021/04/17 03:49:11;;;;;;;0.40;0.40;;;9.80;58.90;;;;;;21017718;28;20106;-76
2021/04/17 03:59:12;;;;;;;0.25;0.22;;;9.90;58.90;;;;;;21025504;28;20075;-76
2021/04/17 04:09:13;;;;;;;0.93;0.30;;;9.90;58.90;;;;;;21056879;28;20072;-76
2021/04/17 04:19:13;;;;;;;0.13;0.13;;;9.90;59.00;;;;;;21056983;28;20085;-76
2021/04/17 04:29:14;;;;;;;0.20;0.17;;;9.90;58.90;;;;;;21040111;28;20290;-77
2021/04/17 04:39:15;;;;;;;0.20;0.10;;;9.80;58.90;;;;;;21055551;28;20032;-77
2021/04/17 04:49:16;;;;;;;0.52;0.35;;;9.80;58.90;;;;;;21038396;28;20044;-76
2021/04/17 04:59:20;;;;;;;0.10;0.10;;;9.90;58.90;;;;;;21071083;28;20519;-77
2021/04/17 05:09:21;;;;;;;0.10;0.10;;;9.80;58.70;;;;;;21054146;28;20028;-77
2021/04/17 05:19:21;;;;;;;0.20;0.10;;;9.80;58.80;;;;;;21036691;28;20040;-78
2021/04/17 05:29:22;;;;;;;2.13;0.15;;;9.80;58.70;;;;;;21053162;28;20070;-77
2021/04/17 05:39:22;;;;;;;0.38;0.25;;;9.80;58.80;;;;;;20767937;28;20029;-78
2021/04/17 05:49:27;;;;;;;2.28;0.40;;;9.80;58.80;;;;;;20710333;28;20030;-77
2021/04/17 05:59:28;;;;;;;0.90;0.45;;;9.80;58.90;;;;;;20710170;28;20046;-75
2021/04/17 06:09:30;;;;;;;3.03;0.13;;;9.80;58.90;;;;;;20709833;28;20066;-76
2021/04/17 06:19:37;;;;;;;0.30;0.28;;;9.80;58.90;;;;;;20708546;28;20079;-77
2021/04/17 06:29:40;;;;;;;1.40;0.47;;;9.80;58.90;;;;;;20725440;28;20086;-77
2021/04/17 06:39:43;;;;;;;0.55;0.20;;;9.80;58.90;;;;;;20681319;28;20034;-71
2021/04/17 06:49:44;;;;;;;0.57;0.30;;;9.80;59.00;;;;;;20655795;28;20491;-75
2021/04/17 06:59:45;;;;;;;0.35;0.20;;;9.80;59.00;;;;;;20623378;28;20038;-71
2021/04/17 07:09:45;;;;;;;0.17;0.13;;;9.80;59.00;;;;;;20639177;28;20117;-71
2021/04/17 07:19:59;;;;;;;0.20;0.20;;;9.80;59.00;;;;;;20654180;28;20034;-71
2021/04/17 07:30:01;;;;;;;0.13;0.10;;;9.80;59.00;;;;;;20649461;28;20086;-72
2021/04/17 07:40:21;;;;;;;0.30;0.30;;;9.80;58.90;;;;;;20699105;28;20540;-74
2021/04/17 07:50:22;;;;;;;0.57;0.30;;;9.90;59.00;;;;;;20885281;28;20449;-73
2021/04/17 08:00:23;;;;;;;1.13;1.02;;;9.90;59.10;;;;;;20712473;28;20066;-74
2021/04/17 08:10:25;;;;;;;7.47;0.77;;;9.90;58.90;;;;;;21037794;28;20043;-76
2021/04/17 08:20:26;;;;;;;0.47;0.47;;;10.10;59.30;;;;;;20841352;28;20105;-75
2021/04/17 08:30:27;;;;;;;0.98;0.50;;;10.10;59.00;;;;;;20907905;28;20047;-74
2021/04/17 08:40:37;;;;;;;1.23;0.50;;;10.10;59.00;;;;;;21079040;22;20050;-75
2021/04/17 08:50:40;;;;;;;0.20;0.20;;;10.10;58.80;;;;;;20738922;28;20071;-75
2021/04/17 09:00:52;;;;;;;0.88;0.50;;;10.10;58.90;;;;;;20725091;28;20046;-74
2021/04/17 09:10:54;;;;;;;1.17;0.65;;;10.10;58.80;;;;;;20651840;28;20040;-74
2021/04/17 09:20:56;;;;;;;0.88;0.30;;;10.10;58.50;;;;;;20314429;29;20032;-72
2021/04/17 09:30:57;;;;;;;0.70;0.22;;;9.90;57.70;;;;;;20326637;29;20044;-73
2021/04/17 09:40:57;;;;;;;5.82;0.73;;;9.90;57.40;;;;;;20311724;28;20544;-74
2021/04/17 09:50:58;;;;;;;2.23;0.47;;;10.00;56.90;;;;;;20327305;29;20402;-74
2021/04/17 10:01:14;;;;;;;0.33;0.20;;;10.10;56.80;;;;;;20310969;29;20288;-75
2021/04/17 10:11:26;;;;;;;2.53;0.85;;;10.20;56.60;;;;;;20304235;29;20365;-72
2021/04/17 10:21:28;;;;;;;0.65;0.45;;;10.20;56.70;;;;;;20341574;29;20071;-76
2021/04/17 10:31:31;;;;;;;1.70;0.55;;;10.20;57.00;;;;;;20323957;28;20044;-77
2021/04/17 10:41:33;;;;;;;0.40;0.17;;;10.30;57.20;;;;;;20338274;28;20070;-75
2021/04/17 10:51:37;;;;;;;0.38;0.28;;;10.20;57.40;;;;;;20322507;29;20036;-79
2021/04/17 11:01:38;;;;;;;3.30;0.50;;;10.20;57.70;;;;;;20322779;29;20414;-76
2021/04/17 11:12:00;;;;;;;0.20;0.17;;;10.20;57.90;;;;;;20418784;28;20038;-83
2021/04/17 11:22:25;;;;;;;1.05;0.30;;;10.30;58.50;;;;;;20722303;28;20075;-82
2021/04/17 11:32:26;;;;;;;0.63;0.55;;;10.40;58.80;;;;;;20720069;28;20520;-83
2021/04/17 11:42:30;;;;;;;1.70;1.02;;;10.50;59.00;;;;;;20324371;28;20075;-84
2021/04/17 11:52:30;;;;;;;1.08;0.85;;;10.60;59.50;;;;;;20309977;28;20379;-82
2021/04/17 12:02:34;;;;;;;3.20;1.00;;;10.60;59.90;;;;;;20325003;29;20071;-82
2021/04/17 12:12:35;;;;;;;1.27;1.00;;;10.80;60.10;;;;;;20345021;29;20052;-82
2021/04/17 12:22:37;;;;;;;0.85;0.47;;;10.70;59.60;;;;;;20316980;28;20493;-81
2021/04/17 12:32:41;;;;;;;1.02;0.63;;;10.60;59.40;;;;;;20337084;29;20040;-83
2021/04/17 12:42:42;;;;;;;1.17;0.50;;;10.70;59.30;;;;;;20330969;28;20044;-74
2021/04/17 12:52:43;;;;;;;0.52;0.38;;;10.70;59.20;;;;;;20331394;29;20075;-76
2021/04/17 13:02:44;;;;;;;1.13;0.65;;;10.70;59.30;;;;;;20345811;29;20040;-73
2021/04/17 13:12:44;;;;;;;0.50;0.47;;;10.70;59.40;;;;;;20329072;29;20369;-73
2021/04/17 13:22:45;;;;;;;1.20;0.30;;;10.70;59.40;;;;;;20313632;29;20872;-71
2021/04/17 13:32:47;;;;;;;0.20;0.20;;;10.80;59.60;;;;;;20341208;28;20080;-71
2021/04/17 13:42:48;;;;;;;0.40;0.25;;;10.80;59.70;;;;;;20347433;29;20040;-71
2021/04/17 13:52:48;;;;;;;0.88;0.47;;;10.80;59.80;;;;;;20339777;28;20028;-73
2021/04/17 14:02:49;;;;;;;1.33;0.40;;;10.80;59.90;;;;;;20324825;28;20058;-73
2021/04/17 14:12:49;;;;;;;0.43;0.22;;;10.80;60.00;;;;;;20355815;29;20375;-76
2021/04/17 14:22:50;;;;;;;0.47;0.40;;;10.80;60.10;;;;;;20323985;28;20036;-75
2021/04/17 14:32:51;;;;;;;19.83;0.93;;;10.80;60.20;;;;;;20322943;29;20182;-76
2021/04/17 14:42:51;;;;;;;2.72;0.40;;;10.90;60.40;;;;;;20512427;28;20371;-73
2021/04/17 14:52:52;;;;;;;0.93;0.30;;;10.90;60.30;;;;;;20337243;29;20061;-72
2021/04/17 15:02:52;;;;;;;2.53;0.73;;;10.90;60.30;;;;;;20338438;29;20712;-72
2021/04/17 15:12:53;;;;;;;0.22;0.20;;;10.90;60.30;;;;;;20336695;28;20474;-73
2021/04/17 15:22:55;;;;;;;0.20;0.20;;;10.80;60.30;;;;;;20310518;28;20036;-78
2021/04/17 15:32:56;;;;;;;0.47;0.25;;;10.80;60.50;;;;;;20335706;28;20032;-70
2021/04/17 15:42:56;;;;;;;0.73;0.35;;;10.80;60.40;;;;;;20331951;29;20047;-72
2021/04/17 15:52:59;;;;;;;0.35;0.25;;;10.80;60.50;;;;;;20344278;29;20059;-72
2021/04/17 16:23:20;;;;;;;0.73;0.73;;;10.80;60.60;;;;;;20328819;28;20032;-71
2021/04/17 16:33:21;;;;;;;0.90;0.25;;;10.70;60.60;;;;;;20322787;28;20039;-72
2021/04/17 16:43:21;;;;;;;0.28;0.28;;;10.70;60.60;;;;;;20357770;28;20307;-71
2021/04/17 16:53:22;;;;;;;0.28;0.28;;;10.70;60.80;;;;;;20346525;29;20043;-71
2021/04/17 17:03:22;;;;;;;0.20;0.20;;;10.70;60.80;;;;;;20393112;29;20036;-70
2021/04/17 17:13:23;;;;;;;0.85;0.40;;;10.70;61.00;;;;;;20423418;28;20031;-70
2021/04/17 17:23:24;;;;;;;0.77;0.77;;;10.70;61.00;;;;;;20394112;29;20044;-71
2021/04/17 17:33:25;;;;;;;0.10;0.10;;;10.70;61.00;;;;;;20327964;28;20644;-71
2021/04/17 17:43:26;;;;;;;0.08;0.08;;;10.70;61.10;;;;;;20312059;29;20040;-71
2021/04/17 17:53:26;;;;;;;2.65;0.20;;;10.60;61.00;;;;;;20313288;29;20283;-70
2021/04/17 18:03:27;;;;;;;0.20;0.20;;;10.70;61.10;;;;;;20388846;28;20115;-71
2021/04/17 18:13:27;;;;;;;0.50;0.50;;;10.60;61.20;;;;;;20578048;28;20036;-70
2021/04/17 18:23:28;;;;;;;0.32;0.20;;;10.60;61.20;;;;;;20373100;28;20040;-72
2021/04/17 18:33:29;;;;;;;0.57;0.28;;;10.60;61.20;;;;;;20397923;29;20062;-70
2021/04/17 18:43:29;;;;;;;0.40;0.40;;;10.60;61.30;;;;;;20417039;29;20118;-71
2021/04/17 18:53:30;;;;;;;0.63;0.40;;;10.60;61.30;;;;;;20384956;29;20114;-70
2021/04/17 19:03:31;;;;;;;0.28;0.28;;;10.60;61.40;;;;;;20345102;28;20052;-70
2021/04/17 19:13:31;;;;;;;1.13;0.20;;;10.60;61.50;;;;;;20439716;28;20030;-70
2021/04/17 19:23:33;;;;;;;2.90;0.50;;;10.60;62.10;;;;;;20476390;28;20956;-71
2021/04/17 19:33:34;;;;;;;0.17;0.17;;;10.60;61.50;;;;;;20304955;28;20366;-72
2021/04/17 19:43:34;;;;;;;0.98;0.68;;;10.60;61.60;;;;;;20314348;29;20032;-75
2021/04/17 19:53:35;;;;;;;3.10;0.28;;;10.60;61.70;;;;;;20332553;29;20055;-72
2021/04/17 20:03:35;;;;;;;0.57;0.40;;;10.60;61.70;;;;;;20316555;28;20036;-71
2021/04/17 20:13:36;;;;;;;0.60;0.32;;;10.60;61.70;;;;;;20317009;29;20040;-71
2021/04/17 20:23:37;;;;;;;0.13;0.13;;;10.60;61.80;;;;;;20331343;29;20028;-72
2021/04/17 20:33:37;;;;;;;0.10;0.10;;;10.60;61.80;;;;;;20313903;28;20051;-71
2021/04/17 20:43:38;;;;;;;0.30;0.25;;;10.60;61.90;;;;;;20347557;28;20036;-71
2021/04/17 20:53:38;;;;;;;1.58;0.70;;;10.50;61.90;;;;;;20330595;29;20123;-72
2021/04/17 21:03:40;;;;;;;0.52;0.45;;;10.60;62.00;;;;;;20330541;29;20040;-71
2021/04/17 21:13:41;;;;;;;0.63;0.25;;;10.60;62.10;;;;;;20314720;29;20135;-73
2021/04/17 21:23:41;;;;;;;2.10;0.57;;;10.50;62.00;;;;;;20329523;28;20127;-72
2021/04/17 21:33:42;;;;;;;0.40;0.30;;;10.60;62.10;;;;;;20312565;29;20300;-72
2021/04/17 21:43:43;;;;;;;4.20;0.35;;;10.60;62.20;;;;;;20326552;29;20051;-71
2021/04/17 21:53:44;;;;;;;0.40;0.40;;;10.50;62.10;;;;;;20312525;29;20653;-70
2021/04/17 22:03:44;;;;;;;0.63;0.43;;;10.50;62.20;;;;;;20317013;29;20605;-71
2021/04/17 22:13:45;;;;;;;0.65;0.55;;;10.60;62.20;;;;;;20340553;29;20131;-73
2021/04/17 22:23:45;;;;;;;0.10;0.10;;;10.50;62.20;;;;;;20324587;29;20036;-72
2021/04/17 22:33:46;;;;;;;0.38;0.30;;;10.50;62.20;;;;;;20324064;29;20052;-72
2021/04/17 22:43:47;;;;;;;0.47;0.43;;;10.50;62.30;;;;;;20339192;29;20494;-70
2021/04/17 22:53:47;;;;;;;0.90;0.60;;;10.50;63.00;;;;;;20307354;29;20315;-71
2021/04/17 23:03:50;;;;;;;0.80;0.52;;;10.60;62.40;;;;;;20322347;29;20802;-70
2021/04/17 23:13:51;;;;;;;1.35;0.65;;;10.50;62.30;;;;;;20320994;28;20102;-72
2021/04/17 23:23:51;;;;;;;0.52;0.40;;;10.50;62.30;;;;;;20337019;29;20048;-71
2021/04/17 23:33:52;;;;;;;0.80;0.55;;;10.50;62.60;;;;;;20351991;28;20102;-70
2021/04/17 23:43:53;;;;;;;1.38;0.65;;;10.50;62.40;;;;;;20335752;29;20036;-71
2021/04/17 23:53:53;;;;;;;0.38;0.38;;;10.50;62.40;;;;;;20319538;29;20147;-71
